Airport ID:KCXP
Update Time (UTC):21/09/2020 10:34
Wind Speed (Knots):1
Wind Direction (Magnetic):60
Temperature (°C):8
Dew Point (°C):-1
Humidity (%):50
Altimeter (inHg):30.1
Density Altitude (Feet):
Visibility:10+
Clouds (Hundreds of feet):OVC065
Present Weather:
METAR:METAR KCXP 211030Z AUTO 00000KT 10SM OVC065 09/M01 A3010 RMK AO2

The data displayed is for advisory purposes only and is not to be used for flight planning or operations.